Time;durP1;ratioP1;P1;durP2;ratioP2;P2;SDS_P1;SDS_P2;PMS_P1;PMS_P2;Temp;Humidity;BMP_temperature;BMP_pressure;BME280_temperature;BME280_humidity;BME280_pressure;Samples;Min_cycle;Max_cycle;Signal;HPM_P1;HPM_P2
2023/11/25 00:01:36;;;;;;;3.13;1.58;;;;;;;-144.05;80.82;57101.59;4980467;28;20027;-80
2023/11/25 00:04:03;;;;;;;3.97;1.13;;;;;;;-144.05;81.59;57105.84;4971567;28;20426;-78
2023/11/25 00:06:30;;;;;;;7.05;1.33;;;;;;;-144.05;81.39;57129.22;4991428;28;20058;-80
2023/11/25 00:08:57;;;;;;;9.20;1.30;;;;;;;-144.05;81.37;57059.09;4992313;28;20436;-79
2023/11/25 00:11:23;;;;;;;3.67;1.58;;;;;;;-144.05;80.75;57071.84;4977094;28;20035;-80
2023/11/25 00:13:49;;;;;;;6.95;2.10;;;;;;;-144.05;81.52;57067.59;4973402;28;20029;-79
2023/11/25 00:16:15;;;;;;;7.03;1.33;;;;;;;-144.05;81.37;57099.47;5007372;28;20566;-78
2023/11/25 00:18:42;;;;;;;10.85;1.50;;;;;;;-144.05;81.67;57093.09;4992745;28;20037;-80
2023/11/25 00:21:08;;;;;;;8.05;1.08;;;;;;;-144.05;82.14;57076.09;4992289;28;20386;-78
2023/11/25 00:23:34;;;;;;;11.18;2.00;;;;;;;-144.05;82.57;57084.59;4971976;28;20088;-80
2023/11/25 00:26:00;;;;;;;7.88;1.40;;;;;;;-144.05;82.52;57103.72;4971719;28;20041;-78
2023/11/25 00:28:26;;;;;;;3.88;1.52;;;;;;;-144.05;82.87;57088.84;4973316;28;20575;-78
2023/11/25 00:30:53;;;;;;;7.35;1.95;;;;;;;-144.05;82.76;57099.47;4983180;28;20129;-77
2023/11/25 00:33:19;;;;;;;8.70;1.90;;;;;;;-144.05;82.76;57105.84;4980675;28;20034;-77
2023/11/25 00:35:45;;;;;;;8.90;1.25;;;1.60;99.90;;;-144.05;82.78;57105.84;4974177;28;20037;-79
2023/11/25 00:38:12;;;;;;;6.13;1.33;;;;;;;-144.05;82.89;57073.97;4974138;28;20031;-81
2023/11/25 00:40:38;;;;;;;5.15;1.27;;;;;;;-144.05;82.36;57080.34;4975854;28;20080;-80
2023/11/25 00:43:06;;;;;;;7.03;1.33;;;;;;;-144.05;81.99;57082.47;4972902;28;20029;-78
2023/11/25 00:45:32;;;;;;;6.88;1.30;;;;;;;-144.05;81.71;57097.34;4974681;28;20487;-80
2023/11/25 00:47:58;;;;;;;4.93;1.80;;;;;;;-144.05;82.27;57065.47;4972480;28;20027;-79
2023/11/25 00:50:24;;;;;;;9.40;1.58;;;;;;;-144.05;82.67;57093.09;4973296;28;20438;-80
2023/11/25 00:52:51;;;;;;;4.70;1.30;;;;;;;-144.05;83.16;57095.22;4972149;28;20034;-82
2023/11/25 00:55:17;;;;;;;5.93;1.10;;;;;;;-144.05;82.69;57097.34;4987782;28;20381;-78
2023/11/25 00:57:44;;;;;;;7.32;1.40;;;;;;;-144.05;82.98;57112.22;4973736;28;20045;-78
2023/11/25 01:00:15;;;;;;;7.72;1.77;;;;;;;-144.05;82.92;57090.97;4972090;28;20470;-79
2023/11/25 01:02:44;;;;;;;5.57;1.20;;;0.80;99.90;;;-144.05;82.54;57103.72;4973735;28;20039;-80
2023/11/25 01:05:11;;;;;;;9.15;2.63;;;;;;;-144.05;82.99;57110.09;4976895;28;20121;-77
2023/11/25 01:07:37;;;;;;;9.57;1.55;;;;;;;-144.05;82.95;57084.59;4972342;28;20053;-80
2023/11/25 01:10:04;;;;;;;5.03;1.45;;;;;;;-144.05;82.01;57080.34;4974680;28;20027;-77
2023/11/25 01:12:33;;;;;;;4.25;1.73;;;;;;;-144.05;81.58;57088.84;4977325;28;20035;-81
2023/11/25 01:14:59;;;;;;;8.57;2.30;;;;;;;-144.05;81.32;57093.09;4973100;28;20568;-81
2023/11/25 01:17:26;;;;;;;4.03;1.70;;;;;;;-144.05;81.21;57107.97;4974342;28;20109;-81
2023/11/25 01:19:52;;;;;;;6.05;1.30;;;;;;;-144.05;81.52;57076.09;5008812;28;20062;-79
2023/11/25 01:22:18;;;;;;;4.32;1.13;;;;;;;-144.05;81.19;57090.97;4973518;28;20031;-80
2023/11/25 01:24:45;;;;;;;2.50;1.30;;;;;;;-144.05;82.05;57063.34;4972893;28;20022;-81
2023/11/25 01:27:12;;;;;;;4.65;0.98;;;;;;;-144.05;82.00;57095.22;4972410;28;20427;-79
2023/11/25 01:29:38;;;;;;;6.30;1.25;;;;;;;-144.05;82.40;57069.72;4972026;28;20027;-81
2023/11/25 01:32:05;;;;;;;8.25;1.50;;;;;;;-144.05;82.36;57082.47;4987308;28;20381;-79
2023/11/25 01:34:32;;;;;;;8.85;1.13;;;;;;;-144.05;82.80;57084.59;4972326;28;20026;-80
2023/11/25 01:36:58;;;;;;;6.75;1.40;;;;;;;-144.05;82.49;57078.22;4971853;28;20106;-77
2023/11/25 01:39:27;;;;;;;10.32;2.05;;;;;;;-144.05;82.92;57078.22;4972463;28;20539;-77
2023/11/25 01:41:54;;;;;;;4.53;1.65;;;;;;;-144.05;82.60;57082.47;4971965;28;20031;-79
2023/11/25 01:44:22;;;;;;;2.55;1.23;;;;;;;-144.05;82.31;57082.47;4970827;28;20088;-79
2023/11/25 01:46:51;;;;;;;3.65;1.15;;;;;;;-144.05;81.98;57116.47;4971915;28;20072;-81
2023/11/25 01:49:21;;;;;;;8.32;1.92;;;;;;;-144.05;81.71;57084.59;4971760;28;20042;-78
2023/11/25 01:51:50;;;;;;;8.30;1.63;;;2.80;99.90;;;-144.05;81.95;57071.84;4971848;28;20480;-79
2023/11/25 01:54:16;;;;;;;6.63;2.00;;;;;;;-144.05;81.85;57059.09;4970645;28;20065;-80
2023/11/25 01:56:47;;;;;;;7.20;1.42;;;;;;;-144.05;81.67;57073.97;4970404;28;20030;-78
2023/11/25 01:59:16;;;;;;;6.25;1.45;;;-1.20;99.90;;;-144.05;82.25;57086.72;4972077;28;20110;-80
2023/11/25 02:01:43;;;;;;;9.00;2.95;;;;;;;-144.05;82.15;57073.97;4971960;28;20054;-79
2023/11/25 02:04:10;;;;;;;6.15;1.50;;;;;;;-144.05;82.64;57090.97;4971539;28;20038;-80
2023/11/25 02:06:36;;;;;;;4.38;1.23;;;;;;;-144.05;82.35;57065.47;4971449;28;20027;-80
2023/11/25 02:09:05;;;;;;;9.30;1.27;;;-0.90;99.90;;;-144.05;82.42;57082.47;4986269;28;20084;-79
2023/11/25 02:11:32;;;;;;;8.20;1.45;;;;;;;-144.05;82.51;57086.72;4974099;28;20088;-78
2023/11/25 02:13:58;;;;;;;4.60;1.17;;;;;;;-144.05;82.68;57073.97;4966809;28;20031;-79
2023/11/25 02:16:24;;;;;;;4.35;1.52;;;;;;;-144.05;82.49;57073.97;4970788;28;20138;-79
2023/11/25 02:18:51;;;;;;;5.18;1.13;;;;;;;-144.05;82.84;57105.84;4971140;28;20031;-80
2023/11/25 02:21:19;;;;;;;6.25;1.55;;;;;;;-144.05;82.86;57080.34;4972803;28;20054;-78
2023/11/25 02:23:47;;;;;;;9.95;1.88;;;;;;;-144.05;82.63;57056.97;4996072;28;20074;-78
2023/11/25 02:26:13;;;;;;;4.47;1.15;;;;;;;-144.05;82.47;57090.97;4974265;28;20053;-77
2023/11/25 02:28:40;;;;;;;8.93;1.90;;;;;;;-144.05;82.67;57090.97;4975093;28;20043;-80
2023/11/25 02:31:06;;;;;;;10.10;1.90;;;;;;;-144.05;82.62;57063.34;4974722;28;20054;-81
2023/11/25 02:33:34;;;;;;;10.63;1.85;;;3.90;99.90;;;-144.05;83.12;57069.72;4975230;28;20046;-81
2023/11/25 02:36:01;;;;;;;7.97;1.92;;;;;;;-144.05;82.78;57099.47;4972420;28;20049;-81
2023/11/25 02:38:27;;;;;;;10.40;1.92;;;;;;;-144.05;83.00;57086.72;4975781;28;20385;-82
2023/11/25 02:40:54;;;;;;;8.25;2.17;;;;;;;-144.05;83.72;57078.22;4973444;28;20041;-79
2023/11/25 02:43:21;;;;;;;7.75;2.10;;;;;;;-144.05;83.87;57097.34;4990565;28;20450;-80
2023/11/25 02:45:48;;;;;;;6.97;2.20;;;;;;;-144.05;83.82;57114.34;4973229;28;20058;-80
2023/11/25 02:48:16;;;;;;;11.07;2.33;;;;;;;-144.05;84.02;57082.47;4974868;28;20428;-79
2023/11/25 02:50:42;;;;;;;9.07;1.90;;;;;;;-144.05;84.07;57127.09;4974950;28;20043;-82
2023/11/25 02:53:09;;;;;;;12.82;3.42;;;;;;;-144.05;83.80;57069.72;4975306;28;20031;-80
2023/11/25 02:55:35;;;;;;;9.90;2.78;;;;;;;-144.05;84.21;57105.84;4973286;28;20483;-79
2023/11/25 02:58:02;;;;;;;19.73;2.95;;;;;;;-144.05;83.88;57095.22;4975024;28;20030;-80
2023/11/25 03:00:28;;;;;;;12.82;2.85;;;;;;;-144.05;83.79;57088.84;4975004;28;20503;-79
2023/11/25 03:03:16;;;;;;;12.48;3.28;;;2.50;99.90;;;-144.05;84.56;57071.84;4974887;28;20030;-81
2023/11/25 03:05:49;;;;;;;16.52;3.08;;;;;;;-144.05;84.62;57099.47;4972113;28;20039;-79
2023/11/25 03:08:21;;;;;;;18.70;4.07;;;;;;;-144.05;84.35;57095.22;4973371;28;20750;-81
2023/11/25 03:10:50;;;;;;;12.80;3.63;;;;;;;-144.05;84.37;57112.22;4970644;28;20030;-78
2023/11/25 03:13:17;;;;;;;15.00;3.95;;;;;;;-144.05;83.88;57090.97;4971212;28;20034;-78
2023/11/25 03:15:43;;;;;;;14.60;3.53;;;;;;;-144.05;83.87;57076.09;5002224;28;20043;-80
2023/11/25 03:18:10;;;;;;;17.52;3.75;;;;;;;-144.05;83.11;57061.22;4974283;28;20452;-79
2023/11/25 03:20:39;;;;;;;12.52;3.70;;;2.00;99.90;;;-144.05;83.27;57114.34;4972721;28;20027;-79
2023/11/25 03:23:06;;;;;;;15.30;3.90;;;;;;;-144.05;83.69;57080.34;4974599;28;20401;-80
2023/11/25 03:25:33;;;;;;;12.40;3.45;;;;;;;-144.05;83.33;57097.34;4998073;28;20103;-77
2023/11/25 03:28:05;;;;;;;15.40;4.35;;;;;;;-144.05;83.09;57116.47;4973050;28;20033;-80
2023/11/25 03:30:32;;;;;;;16.45;3.92;;;;;;;-144.05;84.41;57107.97;5002064;28;20036;-80
2023/11/25 03:32:59;;;;;;;11.27;3.70;;;;;;;-144.05;83.57;57112.22;4988574;28;20023;-80
2023/11/25 03:35:25;;;;;;;11.52;3.60;;;;;;;-144.05;82.74;57101.59;4974354;28;20034;-79
2023/11/25 03:37:52;;;;;;;13.35;3.20;;;;;;;-144.05;83.52;57078.22;4975242;28;20064;-79
2023/11/25 03:40:18;;;;;;;15.82;3.88;;;;;;;-144.05;83.75;57093.09;5005366;28;20122;-79
2023/11/25 03:42:44;;;;;;;18.38;3.80;;;;;;;-144.05;84.06;57073.97;4997597;28;20410;-80
2023/11/25 03:45:14;;;;;;;12.32;3.42;;;2.10;99.90;;;-144.05;83.97;57101.59;4988984;28;20042;-80
2023/11/25 03:47:45;;;;;;;23.45;3.80;;;2.00;99.90;;;-144.05;83.36;57097.34;4972830;28;20030;-78
2023/11/25 03:50:11;;;;;;;11.00;4.40;;;;;;;-144.05;83.47;57120.72;4974303;28;20042;-79
2023/11/25 03:52:41;;;;;;;18.85;3.55;;;2.20;99.90;;;-144.05;83.50;57107.97;4974235;28;20038;-80
2023/11/25 03:55:09;;;;;;;12.38;3.83;;;2.00;99.90;;;-144.05;84.13;57107.97;4973307;28;20403;-78
2023/11/25 03:57:39;;;;;;;17.80;4.55;;;2.30;99.90;;;-144.05;84.20;57112.22;4973007;28;20034;-80
2023/11/25 04:00:16;;;;;;;13.98;3.60;;;;;;;-144.05;83.66;57095.22;4972965;28;20167;-77
2023/11/25 04:02:47;;;;;;;15.60;4.28;;;2.40;99.90;;;-144.05;83.54;57061.22;4972919;28;20056;-80
2023/11/25 04:05:16;;;;;;;16.52;4.35;;;;;;;-144.05;83.62;57129.22;4973778;28;20035;-80
2023/11/25 04:07:43;;;;;;;22.00;4.45;;;;;;;-144.05;83.88;57093.09;4974198;28;20042;-81
2023/11/25 04:10:12;;;;;;;16.05;4.57;;;2.40;99.90;;;-144.05;83.22;57090.97;4973572;28;20031;-78
2023/11/25 04:12:44;;;;;;;28.23;5.38;;;2.50;99.90;;;-144.05;82.94;57088.84;4972300;28;20053;-80
2023/11/25 04:15:12;;;;;;;13.80;3.35;;;3.00;99.90;;;-144.05;82.88;57088.84;4973907;28;20030;-79
2023/11/25 04:17:39;;;;;;;20.30;4.15;;;;;;;-144.05;83.18;57056.97;4974556;28;20485;-78
2023/11/25 04:20:17;;;;;;;13.57;3.70;;;2.10;99.90;;;-144.05;83.52;57065.47;4987931;28;20046;-80
2023/11/25 04:22:47;;;;;;;20.20;4.75;;;2.50;99.90;;;-144.05;83.11;57061.22;4971961;28;20058;-79
2023/11/25 04:25:15;;;;;;;18.17;4.03;;;2.50;99.90;;;-144.05;82.77;57059.09;4970603;28;20211;-80
2023/11/25 04:27:47;;;;;;;13.60;3.35;;;1.90;99.90;;;-144.05;82.67;57082.47;4973916;28;20656;-79
2023/11/25 04:30:17;;;;;;;19.30;4.68;;;1.70;99.90;;;-144.05;82.82;57080.34;4973786;28;20042;-81
2023/11/25 04:32:46;;;;;;;17.45;4.60;;;2.40;99.90;;;-144.05;82.51;57076.09;4973638;28;20104;-80
2023/11/25 04:35:15;;;;;;;17.67;4.10;;;;;;;-144.05;82.72;57118.59;4972883;28;20054;-81
2023/11/25 04:37:47;;;;;;;14.13;3.58;;;2.40;99.90;;;-144.05;82.55;57080.34;4972291;28;20114;-79
2023/11/25 04:40:14;;;;;;;12.02;3.33;;;;;;;-144.05;81.94;57076.09;4973512;28;20081;-78
2023/11/25 04:42:44;;;;;;;23.33;4.47;;;1.90;99.90;;;-144.05;82.71;57093.09;4974092;28;20161;-79
2023/11/25 04:45:16;;;;;;;22.40;4.03;;;2.10;99.90;;;-144.05;82.52;57110.09;4974159;28;20090;-79
2023/11/25 04:47:49;;;;;;;17.77;3.45;;;1.60;99.90;;;-144.05;82.43;57099.47;4972626;28;20547;-81
2023/11/25 04:50:20;;;;;;;11.00;4.10;;;1.80;99.90;;;-144.05;83.36;57090.97;4973121;28;20031;-82
2023/11/25 04:52:46;;;;;;;13.30;4.28;;;;;;;-144.05;82.95;57114.34;4972267;28;20479;-79
2023/11/25 04:55:14;;;;;;;14.88;3.78;;;;;;;-144.05;82.71;57073.97;4971893;28;20023;-79
2023/11/25 04:57:40;;;;;;;20.40;4.63;;;;;;;-144.05;82.80;57086.72;5002996;28;20056;-80
2023/11/25 05:00:11;;;;;;;16.50;3.88;;;2.10;99.90;;;-144.05;82.72;57088.84;5028371;28;20032;-79
2023/11/25 05:02:42;;;;;;;20.83;4.28;;;2.50;99.90;;;-144.05;82.84;57095.22;4972376;28;20549;-81
2023/11/25 05:05:09;;;;;;;23.65;4.05;;;;;;;-144.05;83.31;57052.75;4972840;28;20039;-79
2023/11/25 05:07:36;;;;;;;16.60;4.97;;;;;;;-144.05;83.67;57105.84;4972422;28;20096;-79
2023/11/25 05:10:09;;;;;;;15.32;4.05;;;;;;;-144.05;83.42;57105.84;4972583;28;20027;-78
2023/11/25 05:12:41;;;;;;;17.92;3.63;;;;;;;-144.05;83.49;57103.72;4971007;28;20026;-80
2023/11/25 05:15:09;;;;;;;15.90;3.90;;;;;;;-144.05;83.40;57082.47;4971867;28;20565;-80
2023/11/25 05:17:35;;;;;;;23.85;4.82;;;;;;;-144.05;83.11;57078.22;4972884;28;20082;-79
2023/11/25 05:20:01;;;;;;;19.55;3.95;;;;;;;-144.05;83.02;57088.84;4973145;28;20073;-81
2023/11/25 05:22:28;;;;;;;24.40;5.15;;;;;;;-144.05;83.78;57101.59;4972930;28;20052;-78
2023/11/25 05:24:55;;;;;;;13.73;3.83;;;;;;;-144.05;83.44;57112.22;4972346;28;20039;-79
2023/11/25 05:27:22;;;;;;;22.75;4.43;;;;;;;-144.05;83.63;57112.22;4966594;28;20126;-80
2023/11/25 05:29:49;;;;;;;23.67;4.88;;;;;;;-144.05;83.51;57088.84;4971081;28;20437;-78
2023/11/25 05:32:15;;;;;;;18.05;4.47;;;;;;;-144.05;83.71;57112.22;4972267;28;20111;-78
2023/11/25 05:34:42;;;;;;;11.82;3.78;;;;;;;-144.05;84.39;57093.09;4972092;28;20042;-79
2023/11/25 05:37:08;;;;;;;26.70;4.95;;;;;;;-144.05;83.84;57114.34;4972108;28;20412;-78
2023/11/25 05:39:36;;;;;;;16.58;4.05;;;;;;;-144.05;83.51;57090.97;4972830;28;20031;-79
2023/11/25 05:42:03;;;;;;;15.52;3.95;;;;;;;-144.05;82.99;57076.09;4972941;28;20109;-80
2023/11/25 05:44:31;;;;;;;22.50;4.50;;;;;;;-144.05;83.09;57086.72;4990851;28;20118;-80
2023/11/25 05:46:58;;;;;;;19.98;4.05;;;;;;;-144.05;83.19;57076.09;4972454;28;20030;-78
2023/11/25 05:49:24;;;;;;;18.42;7.45;;;;;;;-144.05;83.41;57103.72;4973408;28;20087;-81
2023/11/25 05:51:51;;;;;;;16.15;4.28;;;;;;;-144.05;83.10;57095.22;4972254;28;20407;-80
2023/11/25 05:54:18;;;;;;;23.00;4.28;;;2.60;99.90;;;-144.05;83.28;57097.34;4972702;28;20034;-81
2023/11/25 05:56:48;;;;;;;16.90;3.95;;;2.90;99.90;;;-144.05;83.34;57069.72;4974891;28;20489;-79
2023/11/25 05:59:16;;;;;;;28.13;5.15;;;2.90;99.90;;;-144.05;83.64;57076.09;4971906;28;20377;-83
2023/11/25 06:01:43;;;;;;;22.83;4.10;;;;;;;-144.05;83.02;57082.47;4975632;28;20055;-82
2023/11/25 06:04:09;;;;;;;18.95;4.68;;;;;;;-144.05;83.41;57095.22;4973360;28;20101;-81
2023/11/25 06:06:36;;;;;;;23.98;4.53;;;;;;;-144.05;83.57;57097.34;4972845;28;20545;-80
2023/11/25 06:09:02;;;;;;;29.77;5.13;;;;;;;-144.05;83.45;57082.47;4971898;28;20031;-79
2023/11/25 06:11:29;;;;;;;15.57;3.67;;;;;;;-144.05;83.95;57073.97;4980131;28;20023;-78
2023/11/25 06:13:56;;;;;;;22.83;4.95;;;;;;;-144.05;83.54;57088.84;4982067;28;20400;-82
2023/11/25 06:16:24;;;;;;;19.80;3.72;;;;;;;-144.05;83.20;57076.09;4967095;28;20054;-80
2023/11/25 06:18:51;;;;;;;28.17;6.30;;;;;;;-144.05;83.11;57067.59;4973159;28;20133;-81
2023/11/25 06:21:19;;;;;;;22.33;3.78;;;;;;;-144.05;83.89;57073.97;4972873;28;20030;-82
2023/11/25 06:23:46;;;;;;;21.85;3.65;;;;;;;-144.05;83.10;57067.59;4976443;28;20033;-82
2023/11/25 06:26:13;;;;;;;23.45;4.10;;;;;;;-144.05;83.30;57061.22;4975157;28;20589;-79
2023/11/25 06:28:45;;;;;;;19.30;5.82;;;3.30;99.90;;;-144.05;83.34;57059.09;4978312;28;20031;-80
2023/11/25 06:31:15;;;;;;;16.02;4.07;;;3.40;99.90;;;-144.05;83.02;57088.84;4981500;28;20031;-79
2023/11/25 06:33:43;;;;;;;16.20;3.78;;;;;;;-144.05;82.82;57073.97;4984901;28;20086;-81
2023/11/25 06:36:10;;;;;;;18.27;3.85;;;;;;;-144.05;83.42;57112.22;4983787;28;20446;-81
2023/11/25 06:38:37;;;;;;;20.50;3.90;;;;;;;-144.05;82.66;57086.72;4979891;28;20031;-81
2023/11/25 06:41:04;;;;;;;22.92;3.80;;;;;;;-144.05;82.48;57065.47;4978464;28;20058;-81
2023/11/25 06:43:30;;;;;;;18.95;3.50;;;;;;;-144.05;82.41;57069.72;5037884;28;20036;-79
2023/11/25 06:45:58;;;;;;;18.60;2.72;;;;;;;-144.05;82.59;57069.72;4987288;28;20031;-78
2023/11/25 06:48:24;;;;;;;10.90;2.67;;;;;;;-144.05;82.06;57076.09;4970394;28;20023;-80
2023/11/25 06:50:52;;;;;;;20.75;3.78;;;3.80;99.90;;;-144.05;83.06;57048.50;4986867;28;20027;-78
2023/11/25 06:53:19;;;;;;;17.52;2.83;;;;;;;-144.05;82.76;57076.09;4972901;28;20034;-80
2023/11/25 06:55:46;;;;;;;12.07;2.47;;;;;;;-144.05;83.07;57076.09;4972838;28;20035;-81
2023/11/25 06:58:13;;;;;;;8.95;2.67;;;;;;;-144.05;83.20;57080.34;4972947;28;20031;-80
2023/11/25 07:00:42;;;;;;;21.38;4.32;;;;;;;-144.05;83.16;57090.97;4972870;28;20038;-80
2023/11/25 07:03:09;;;;;;;13.30;2.72;;;3.90;99.90;;;-144.05;82.94;57071.84;4972510;28;20053;-81
2023/11/25 07:05:37;;;;;;;14.90;3.08;;;;;;;-144.05;83.20;57052.75;4987274;28;20069;-81
2023/11/25 07:08:05;;;;;;;9.07;2.55;;;;;;;-144.05;82.59;57086.72;4973240;28;20033;-82
2023/11/25 07:10:35;;;;;;;15.07;2.65;;;;;;;-144.05;83.28;57073.97;4973318;28;20186;-80
2023/11/25 07:13:05;;;;;;;16.10;3.60;;;0.30;99.90;;;-144.05;83.39;57099.47;4974124;28;20515;-80
2023/11/25 07:15:32;;;;;;;16.40;2.17;;;;;;;-144.05;82.58;57073.97;4988219;28;20125;-78
2023/11/25 07:17:59;;;;;;;10.15;1.90;;;;;;;-144.05;83.10;57069.72;4975019;28;20111;-79
2023/11/25 07:20:27;;;;;;;12.70;2.13;;;;;;;-144.05;82.48;57071.84;5016987;28;20027;-79
2023/11/25 07:22:53;;;;;;;16.70;2.60;;;;;;;-144.05;82.66;57082.47;4975082;28;20035;-79
2023/11/25 07:25:19;;;;;;;12.50;2.40;;;;;;;-144.05;82.08;57082.47;4991724;28;20439;-79
2023/11/25 07:27:47;;;;;;;12.50;2.67;;;;;;;-144.05;82.99;57050.63;4991842;28;20110;-79
2023/11/25 07:30:15;;;;;;;7.47;1.88;;;;;;;-144.05;82.37;57071.84;4974653;28;20057;-79
2023/11/25 07:32:43;;;;;;;13.20;2.03;;;;;;;-144.05;82.84;57040.00;4973572;28;20085;-79
2023/11/25 07:35:10;;;;;;;12.30;2.40;;;;;;;-144.05;82.37;57065.47;4974218;28;20102;-79
2023/11/25 07:37:38;;;;;;;11.23;2.13;;;;;;;-144.05;81.99;57080.34;5008490;28;20050;-79
2023/11/25 07:40:13;;;;;;;12.75;2.42;;;;;;;-144.05;82.52;57061.22;4973998;28;20472;-81
2023/11/25 07:42:43;;;;;;;9.77;1.98;;;;;;;-144.05;82.04;57088.84;4974406;28;20031;-80
2023/11/25 07:45:10;;;;;;;11.30;2.42;;;;;;;-144.05;81.96;57082.47;4974259;28;20039;-79
2023/11/25 07:47:37;;;;;;;15.27;2.22;;;;;;;-144.05;81.89;57076.09;4980535;28;20045;-80
2023/11/25 07:50:03;;;;;;;8.68;2.33;;;;;;;-144.05;82.41;57093.09;4974099;28;20055;-80
2023/11/25 07:52:30;;;;;;;10.27;2.08;;;;;;;-144.05;82.04;57069.72;4974109;28;20031;-78
2023/11/25 07:54:56;;;;;;;8.68;2.03;;;;;;;-144.05;81.71;57069.72;4974181;28;20081;-78
2023/11/25 07:57:22;;;;;;;6.32;2.08;;;;;;;-144.05;83.05;57097.34;4966512;28;20088;-78
2023/11/25 07:59:49;;;;;;;6.65;2.05;;;;;;;-144.05;82.74;57069.72;4970921;28;20122;-78
2023/11/25 08:02:15;;;;;;;13.75;2.88;;;;;;;-144.05;82.49;57090.97;4973023;28;20061;-80
2023/11/25 08:04:42;;;;;;;17.25;4.15;;;;;;;-144.05;82.74;57069.72;4972301;28;20042;-79
2023/11/25 08:07:08;;;;;;;12.48;2.30;;;;;;;-144.05;82.59;57067.59;4986876;28;20442;-79
2023/11/25 08:09:34;;;;;;;12.02;1.83;;;;;;;-144.05;82.00;57054.88;4981774;28;20030;-78
2023/11/25 08:12:01;;;;;;;14.68;3.25;;;;;;;-144.05;81.77;57073.97;4973652;28;20112;-78
2023/11/25 08:14:27;;;;;;;18.77;3.70;;;;;;;-144.05;81.42;57065.47;4972958;28;20018;-77
2023/11/25 08:16:53;;;;;;;15.57;3.35;;;;;;;-144.05;81.83;57059.09;4972256;28;20035;-80
2023/11/25 08:19:21;;;;;;;25.10;6.68;;;;;;;-144.05;81.42;57063.34;4972352;28;20116;-79
2023/11/25 08:21:52;;;;;;;12.10;3.28;;;;;;;-144.05;82.14;57080.34;4971542;28;20019;-77
2023/11/25 08:24:18;;;;;;;13.95;3.80;;;4.00;99.90;;;-144.05;82.31;57056.97;4972514;28;20133;-79
2023/11/25 08:26:46;;;;;;;19.02;4.63;;;4.00;99.90;;;-144.05;82.79;57073.97;4973328;28;20041;-79
2023/11/25 08:29:12;;;;;;;13.30;3.35;;;;;;;-144.05;82.80;57056.97;4981985;28;20034;-79
2023/11/25 08:31:39;;;;;;;10.82;3.38;;;4.00;99.90;;;-144.05;82.50;57069.72;4974165;28;20030;-82
2023/11/25 08:34:09;;;;;;;14.98;3.88;;;;;;;-144.05;83.12;57067.59;4976606;28;20118;-80
2023/11/25 08:36:52;;;;;;;25.42;5.93;;;4.00;99.90;;;-144.05;83.64;57050.63;4974978;28;20034;-81
2023/11/25 08:39:21;;;;;;;14.50;4.07;;;;;;;-144.05;82.82;57069.72;4981490;28;20027;-81
2023/11/25 08:41:50;;;;;;;9.65;3.47;;;;;;;-144.05;82.89;57067.59;4974048;28;20034;-79
2023/11/25 08:44:16;;;;;;;17.48;4.32;;;;;;;-144.05;83.26;57056.97;4971781;28;20487;-78
2023/11/25 08:46:42;;;;;;;13.82;4.63;;;;;;;-144.05;83.02;57067.59;4971961;28;20049;-80
2023/11/25 08:49:13;;;;;;;15.93;3.92;;;4.20;99.90;;;-144.05;82.17;57067.59;4971795;28;20062;-74
2023/11/25 08:51:46;;;;;;;18.73;3.90;;;4.20;99.90;;;-144.05;81.39;57033.63;4972081;28;20031;-80
2023/11/25 08:54:13;;;;;;;17.55;4.35;;;4.30;99.90;;;-144.05;80.70;57076.09;4978098;28;20081;-76
2023/11/25 08:56:47;;;;;;;14.13;4.13;;;;;;;-144.05;80.53;57061.22;4971582;28;20452;-76
2023/11/25 08:59:18;;;;;;;11.90;3.33;;;;;;;-144.05;81.50;57078.22;4972732;28;20118;-79
2023/11/25 09:01:47;;;;;;;13.75;3.58;;;;;;;-144.05;81.15;57056.97;5009566;28;20074;-80
2023/11/25 09:04:19;;;;;;;11.02;3.08;;;;;;;-144.05;81.86;57065.47;4971803;28;20050;-77
2023/11/25 09:06:49;;;;;;;22.20;4.13;;;;;;;-144.05;81.69;57071.84;4977292;28;20038;-79
2023/11/25 09:09:19;;;;;;;13.43;4.35;;;5.80;99.90;;;-144.05;81.73;57071.84;4971559;28;20118;-80
2023/11/25 09:11:50;;;;;;;8.60;3.47;;;;;;;-144.05;81.03;57063.34;4975315;28;20395;-77
2023/11/25 09:14:16;;;;;;;9.45;3.15;;;;;;;-144.05;81.00;57099.47;4971484;28;20026;-75
2023/11/25 09:16:43;;;;;;;11.23;2.47;;;;;;;-144.05;81.22;57029.38;4969605;28;20030;-79
2023/11/25 09:19:09;;;;;;;13.35;3.38;;;;;;;-144.05;80.75;57042.13;4970525;28;20027;-77
2023/11/25 09:21:36;;;;;;;10.10;3.13;;;;;;;-144.05;80.66;57044.25;4970997;28;20101;-77
2023/11/25 09:24:04;;;;;;;11.65;3.33;;;;;;;-144.05;80.80;57059.09;4972294;28;20434;-80
2023/11/25 09:26:30;;;;;;;10.60;2.80;;;;;;;-144.05;80.50;57048.50;4971097;28;20034;-80
2023/11/25 09:28:56;;;;;;;8.00;3.10;;;;;;;-144.05;79.56;57048.50;4986107;28;20027;-77
2023/11/25 09:31:22;;;;;;;10.73;3.00;;;;;;;-144.05;79.04;57046.38;4964043;28;20041;-78
2023/11/25 09:33:50;;;;;;;11.07;2.47;;;;;;;-144.05;79.25;57063.34;4971222;28;20045;-77
2023/11/25 09:36:18;;;;;;;8.95;4.00;;;;;;;-144.05;79.60;57048.50;4971311;28;20027;-77
2023/11/25 09:38:44;;;;;;;14.43;2.83;;;;;;;-144.05;79.25;57059.09;4975107;28;20054;-77
2023/11/25 09:41:11;;;;;;;8.95;2.33;;;;;;;-144.05;79.56;57059.09;4969574;28;20037;-78
2023/11/25 09:43:38;;;;;;;8.10;2.67;;;;;;;-144.05;79.39;57056.97;4971583;28;20061;-77
2023/11/25 09:46:05;;;;;;;10.75;2.58;;;;;;;-144.05;79.62;57044.25;4973930;28;20030;-79
2023/11/25 09:48:33;;;;;;;9.93;2.60;;;;;;;-144.05;79.43;57052.75;5012197;28;20026;-78
2023/11/25 09:51:00;;;;;;;10.07;2.60;;;;;;;-144.05;79.17;57046.38;4988104;28;20090;-79
2023/11/25 09:53:29;;;;;;;12.38;2.50;;;;;;;-144.05;79.23;57061.22;4973260;28;20483;-79
2023/11/25 09:56:06;;;;;;;18.52;7.63;;;;;;;-144.05;77.79;57052.75;4972242;28;20132;-77
2023/11/25 09:58:35;;;;;;;10.90;4.35;;;;;;;-144.05;77.79;57033.63;4966624;28;20103;-78
2023/11/25 10:01:05;;;;;;;9.68;2.63;;;;;;;-144.05;77.69;57046.38;4972441;28;20035;-77
2023/11/25 10:03:39;;;;;;;6.30;2.33;;;8.10;99.90;;;-144.05;77.90;57082.47;4973427;28;20022;-78
2023/11/25 10:06:05;;;;;;;8.68;3.00;;;;;;;-144.05;78.17;57065.47;4974482;28;20014;-78
2023/11/25 10:08:34;;;;;;;8.68;2.42;;;;;;;-144.05;78.75;57063.34;4987270;28;20035;-78
2023/11/25 10:11:07;;;;;;;8.60;2.85;;;5.20;99.90;;;-144.05;78.88;57063.34;4973564;28;20113;-79
2023/11/25 10:13:38;;;;;;;8.15;2.47;;;5.20;99.90;;;-144.05;79.22;57052.75;4972483;28;20049;-79
2023/11/25 10:16:08;;;;;;;6.38;2.33;;;;;;;-144.05;79.97;57071.84;4986522;28;20030;-80
2023/11/25 10:18:40;;;;;;;10.10;2.70;;;6.40;99.90;;;-144.05;80.32;57025.13;4972229;28;20046;-79
2023/11/25 10:21:07;;;;;;;11.05;2.88;;;;;;;-144.05;81.03;57069.72;4987127;28;20491;-78
2023/11/25 10:23:35;;;;;;;8.05;2.47;;;5.20;99.90;;;-144.05;80.91;57095.22;4971917;28;20038;-77
2023/11/25 10:26:03;;;;;;;8.57;2.60;;;4.90;99.90;;;-144.05;80.66;57065.47;4979403;28;20029;-77
2023/11/25 10:28:36;;;;;;;9.38;3.55;;;;;;;-144.05;81.04;57076.09;4986385;28;20023;-77
2023/11/25 10:31:05;;;;;;;6.72;2.47;;;5.60;99.90;;;-144.05;81.50;57048.50;4987967;28;20419;-77
2023/11/25 10:33:31;;;;;;;8.35;1.80;;;5.00;99.90;;;-144.05;81.39;57040.00;4982771;28;20069;-78
2023/11/25 10:35:59;;;;;;;7.05;2.20;;;5.40;99.90;;;-144.05;81.70;57069.72;4985464;28;20035;-77
2023/11/25 10:38:27;;;;;;;7.35;2.30;;;5.80;99.90;;;-144.05;81.72;57078.22;4976746;28;20495;-79
2023/11/25 10:41:05;;;;;;;6.15;2.70;;;4.90;99.90;;;-144.05;81.87;57033.63;4973132;28;20029;-79
2023/11/25 10:43:32;;;;;;;9.38;2.28;;;5.40;99.90;;;-144.05;81.84;57042.13;4966276;28;20106;-79
2023/11/25 10:46:09;;;;;;;6.28;3.08;;;5.00;99.90;;;-144.05;81.71;57040.00;4973122;28;20038;-79
2023/11/25 10:48:41;;;;;;;5.43;2.33;;;6.10;99.90;;;-144.05;81.28;57059.09;4976257;28;20103;-78
2023/11/25 10:51:08;;;;;;;6.47;3.40;;;;;;;-144.05;81.55;57076.09;4974214;28;20023;-79
2023/11/25 10:53:37;;;;;;;11.05;3.28;;;5.30;99.90;;;-144.05;82.29;57042.13;4975670;28;20053;-78
2023/11/25 10:56:04;;;;;;;10.43;3.45;;;;;;;-144.05;82.06;57063.34;4974951;28;20115;-80
2023/11/25 10:58:34;;;;;;;10.80;3.38;;;5.60;99.90;;;-144.05;82.10;57046.38;4973506;28;20041;-79
2023/11/25 11:01:02;;;;;;;8.55;3.38;;;;;;;-144.05;81.52;57050.63;4975006;28;20104;-78